Time;durP1;ratioP1;P1;durP2;ratioP2;P2;SDS_P1;SDS_P2;PMS_P1;PMS_P2;Temp;Humidity;BMP_temperature;BMP_pressure;BME280_temperature;BME280_humidity;BME280_pressure;Samples;Min_cycle;Max_cycle;Signal;HPM_P1;HPM_P2
2021/05/13 00:01:48;;;;;;;12.15;6.33;;;;;;;10.18;78.42;99629.77;1694778;84;21221;-80
2021/05/13 00:04:16;;;;;;;17.00;6.67;;;;;;;10.16;78.97;99628.13;1694913;84;21582;-79
2021/05/13 00:06:43;;;;;;;13.70;6.40;;;;;;;10.12;79.29;99630.02;1694888;84;21114;-79
2021/05/13 00:09:10;;;;;;;10.93;6.17;;;;;;;10.10;79.92;99629.27;1699503;83;22217;-79
2021/05/13 00:11:43;;;;;;;11.65;5.50;;;;;;;10.05;80.14;99627.27;1702804;84;21106;-80
2021/05/13 00:14:10;;;;;;;15.25;5.62;;;;;;;10.01;80.27;99621.77;1671830;85;21664;-81
2021/05/13 00:16:37;;;;;;;15.35;5.30;;;;;;;9.97;80.81;99621.49;1667188;85;21129;-79
2021/05/13 00:19:07;;;;;;;11.22;5.17;;;;;;;9.94;81.44;99616.34;1646610;87;21105;-80
2021/05/13 00:21:36;;;;;;;13.03;5.35;;;;;;;9.91;81.71;99616.48;1646091;87;21170;-80
2021/05/13 00:24:04;;;;;;;12.58;6.40;;;;;;;9.88;82.00;99617.47;1646422;87;21109;-80
2021/05/13 00:26:40;;;;;;;11.15;5.28;;;;;;;9.86;82.39;99614.05;1650718;85;21571;-80
2021/05/13 00:29:05;;;;;;;7.70;5.20;;;;;;;9.82;82.72;99615.97;1672682;85;21122;-80
2021/05/13 00:31:35;;;;;;;11.53;5.72;;;;;;;9.81;82.81;99610.77;1673277;85;21109;-80
2021/05/13 00:34:02;;;;;;;9.73;5.27;;;;;;;9.75;83.02;99606.59;1674400;85;21093;-82
2021/05/13 00:36:30;;;;;;;11.25;5.85;;;;;;;9.74;83.11;99606.22;1673821;85;21113;-78
2021/05/13 00:38:59;;;;;;;14.38;6.03;;;;;;;9.72;83.28;99605.42;1673119;85;21082;-81
2021/05/13 00:41:27;;;;;;;11.35;5.97;;;;;;;9.72;83.54;99609.38;1673527;85;21133;-81
2021/05/13 00:43:54;;;;;;;14.70;6.30;;;;;;;9.66;83.25;99599.09;1674025;85;21121;-83
2021/05/13 00:46:22;;;;;;;10.38;6.40;;;;;;;9.62;83.78;99601.02;1673524;85;21133;-82
2021/05/13 00:48:50;;;;;;;11.12;6.35;;;;;;;9.59;83.80;99597.64;1673587;85;21102;-82
2021/05/13 00:51:19;;;;;;;9.95;6.70;;;;;;;9.56;83.88;99596.47;1642692;84;21692;-83
2021/05/13 00:53:47;;;;;;;11.00;5.78;;;;;;;9.55;84.03;99598.72;1612708;88;21668;-81
2021/05/13 00:56:14;;;;;;;10.25;6.12;;;;;;;9.53;83.94;99593.98;1573523;90;21195;-82
2021/05/13 00:58:45;;;;;;;11.73;6.40;;;;;;;9.51;84.09;99592.72;1588558;88;21237;-84
2021/05/13 01:01:13;;;;;;;11.80;5.67;;;;;;;9.51;84.25;99583.52;1588065;90;21118;-83
2021/05/13 01:03:40;;;;;;;13.20;6.45;;;;;;;9.47;83.87;99583.70;1587936;90;21170;-82
2021/05/13 01:06:12;;;;;;;9.95;6.00;;;;;;;9.44;83.94;99584.22;1587851;88;21284;-77
2021/05/13 01:08:40;;;;;;;10.58;5.67;;;;;;;9.41;84.19;99577.79;1587140;88;21139;-77
2021/05/13 01:11:10;;;;;;;9.68;6.05;;;;;;;9.38;84.27;99579.20;1585163;90;21226;-77
2021/05/13 01:14:12;;;;;;;12.07;4.83;;;;;;;9.38;84.16;99580.52;1585097;90;21138;-75
2021/05/13 01:16:51;;;;;;;7.65;5.58;;;;;;;9.38;84.50;99575.27;1583464;90;21170;-76
2021/05/13 01:18:58;;;;;;;8.93;5.40;;;;;;;9.39;84.87;99580.09;1582421;89;21259;-79
2021/05/13 01:21:25;;;;;;;10.85;5.42;;;;;;;9.36;84.84;99575.81;1585233;90;21131;-77
2021/05/13 01:23:53;;;;;;;8.10;5.35;;;;;;;9.36;84.76;99578.88;1585075;88;21138;-79
2021/05/13 01:26:23;;;;;;;11.65;5.25;;;;;;;9.37;84.84;99581.92;1607863;87;21710;-78
2021/05/13 01:28:50;;;;;;;11.33;5.40;;;;;;;9.36;85.21;99573.19;1673347;85;21064;-77
2021/05/13 01:31:18;;;;;;;11.65;6.00;;;;;;;9.33;84.87;99568.03;1673330;85;21134;-77
2021/05/13 01:33:45;;;;;;;7.28;5.00;;;;;;;9.31;85.09;99569.87;1673502;85;21028;-77
2021/05/13 01:36:12;;;;;;;8.03;4.67;;;;;;;9.30;84.88;99562.92;1673358;85;21098;-78
2021/05/13 01:38:42;;;;;;;6.35;4.70;;;;;;;9.26;84.93;99566.58;1673181;85;21344;-78
2021/05/13 01:41:15;;;;;;;7.65;4.33;;;;;;;9.26;85.03;99566.58;1673398;85;21195;-82
2021/05/13 01:43:41;;;;;;;6.70;4.42;;;;;;;9.24;85.18;99565.78;1673532;85;21072;-79
2021/05/13 01:46:09;;;;;;;5.37;4.00;;;;;;;9.21;85.05;99563.29;1673291;85;21600;-81
2021/05/13 01:48:39;;;;;;;9.48;4.97;;;;;;;9.17;84.98;99561.70;1673375;85;21082;-77
2021/05/13 01:51:06;;;;;;;6.55;4.12;;;;;;;9.12;85.38;99563.66;1673197;85;21165;-78
2021/05/13 01:53:33;;;;;;;6.17;4.60;;;;;;;9.06;85.44;99562.58;1673137;85;21104;-77
2021/05/13 01:56:00;;;;;;;8.43;4.83;;;;;;;9.01;85.34;99567.55;1673286;85;21749;-77
2021/05/13 01:58:27;;;;;;;7.10;4.97;;;;;;;8.97;85.50;99565.11;1673140;85;21159;-77
2021/05/13 02:00:53;;;;;;;8.45;4.35;;;;;;;8.93;85.77;99570.95;1673182;85;21656;-79
2021/05/13 02:03:20;;;;;;;7.00;4.53;;;;;;;8.92;86.42;99563.97;1671532;85;21120;-77
2021/05/13 02:05:47;;;;;;;5.30;3.83;;;;;;;8.92;86.24;99567.91;1671790;85;21541;-78
2021/05/13 02:08:14;;;;;;;9.53;4.55;;;;;;;8.93;86.27;99566.17;1671464;85;21095;-80
2021/05/13 02:10:42;;;;;;;8.65;4.95;;;;;;;8.93;86.18;99560.45;1658945;85;21072;-79
2021/05/13 02:13:09;;;;;;;6.65;4.60;;;;;;;8.94;85.99;99566.09;1657572;86;21819;-81
2021/05/13 02:15:36;;;;;;;8.28;5.00;;;;;;;8.93;86.14;99567.02;1657855;85;21054;-82
2021/05/13 02:18:04;;;;;;;6.30;4.30;;;;;;;8.93;86.21;99568.80;1657596;85;21127;-81
2021/05/13 02:22:54;;;;;;;8.30;5.45;;;;;;;8.96;86.26;99563.41;1774470;78;28543;-82
2021/05/13 02:25:22;;;;;;;9.33;4.45;;;;;;;8.90;86.14;99570.20;1723601;82;21026;-82
2021/05/13 02:27:49;;;;;;;7.35;4.78;;;;;;;8.89;86.39;99570.67;1717453;83;21831;-83
2021/05/13 02:30:17;;;;;;;8.93;5.17;;;;;;;8.87;86.55;99568.56;1717708;83;21059;-82
2021/05/13 02:32:44;;;;;;;9.48;5.50;;;;;;;8.86;86.72;99569.48;1717477;83;21601;-82
2021/05/13 02:35:13;;;;;;;8.58;5.60;;;;;;;8.87;86.80;99567.25;1718111;83;21064;-84
2021/05/13 02:37:41;;;;;;;10.15;4.42;;;;;;;8.90;86.67;99566.27;1720844;80;21091;-84
2021/05/13 02:40:08;;;;;;;10.63;5.22;;;;;;;8.91;86.51;99558.80;1723187;80;20970;-84
2021/05/13 02:42:35;;;;;;;8.85;5.03;;;;;;;8.92;86.39;99565.29;1722861;80;20940;-85
2021/05/13 02:45:04;;;;;;;6.42;4.58;;;;;;;8.93;86.12;99567.02;1722694;80;21087;-86
2021/05/13 02:47:32;;;;;;;9.13;4.58;;;;;;;8.95;86.25;99566.50;1692678;80;21061;-84
2021/05/13 02:49:59;;;;;;;5.12;4.30;;;;;;;8.95;86.52;99561.69;1675994;83;21085;-85
2021/05/13 02:52:27;;;;;;;8.75;5.40;;;;;;;8.96;86.71;99564.27;1673690;85;21356;-84
2021/05/13 02:54:54;;;;;;;9.48;5.00;;;;;;;8.94;86.31;99563.46;1672508;85;21226;-84
2021/05/13 02:57:21;;;;;;;7.87;4.65;;;;;;;8.91;86.18;99554.87;1672464;85;21740;-83
2021/05/13 02:59:54;;;;;;;6.85;4.50;;;;;;;8.92;86.20;99559.19;1672246;85;21108;-82
2021/05/13 03:02:18;;;;;;;6.65;5.20;;;;;;;8.87;86.40;99559.37;1671874;85;21179;-85
2021/05/13 03:04:45;;;;;;;6.92;5.00;;;;;;;8.86;86.30;99568.17;1672660;85;21096;-84
2021/05/13 03:07:13;;;;;;;7.60;5.08;;;;;;;8.86;86.66;99570.80;1672337;85;21084;-86
2021/05/13 03:09:45;;;;;;;8.75;5.12;;;;;;;8.86;86.90;99573.43;1662714;85;21629;-85
2021/05/13 03:12:11;;;;;;;9.53;5.10;;;;;;;8.85;86.95;99573.02;1658632;86;21233;-86
2021/05/13 03:14:39;;;;;;;7.95;5.03;;;;;;;8.85;87.23;99575.64;1658907;86;21162;-87
2021/05/13 03:17:06;;;;;;;9.95;4.97;;;;;;;8.85;87.16;99573.02;1658662;86;21080;-87
2021/05/13 03:19:41;;;;;;;6.47;4.83;;;;;;;8.85;87.00;99576.95;1658870;86;21171;-87
2021/05/13 03:22:06;;;;;;;7.42;4.72;;;;;;;8.85;86.90;99569.07;1657764;86;21096;-84
2021/05/13 03:29:54;;;;;;;6.80;4.78;;;;;;;8.88;86.96;99579.48;1678236;85;21079;-87
2021/05/13 03:32:21;;;;;;;9.53;5.65;;;;;;;8.92;86.94;99582.36;1674485;85;21253;-87
2021/05/13 03:34:48;;;;;;;9.58;5.65;;;;;;;8.97;87.12;99581.75;1674278;85;21094;-85
2021/05/13 03:37:15;;;;;;;6.00;5.10;;;;;;;9.01;86.99;99575.89;1673971;85;21230;-89
2021/05/13 03:39:42;;;;;;;10.85;5.70;;;;;;;9.06;86.87;99574.40;1674308;85;21566;-81
2021/05/13 03:42:09;;;;;;;8.70;5.65;;;;;;;9.10;86.86;99576.00;1673320;85;21199;-80
2021/05/13 03:44:36;;;;;;;11.78;6.10;;;;;;;9.14;86.72;99581.53;1673325;85;21119;-82
2021/05/13 03:47:03;;;;;;;8.53;5.47;;;;;;;9.17;86.98;99582.71;1679555;84;21185;-80
2021/05/13 03:49:34;;;;;;;8.65;5.45;;;;;;;9.20;86.49;99586.52;1696484;84;21792;-80
2021/05/13 03:52:01;;;;;;;8.08;5.97;;;;;;;9.21;86.43;99584.31;1669701;84;21573;-81
2021/05/13 03:54:28;;;;;;;7.95;5.87;;;;;;;9.24;86.67;99589.43;1696245;84;21313;-81
2021/05/13 03:56:55;;;;;;;11.45;6.15;;;;;;;9.26;86.83;99593.32;1696451;84;21071;-79
2021/05/13 03:59:22;;;;;;;10.60;5.30;;;;;;;9.28;86.54;99588.40;1696285;84;21090;-79
2021/05/13 04:02:03;;;;;;;8.48;6.15;;;;;;;9.29;86.24;99588.78;1696950;84;21609;-81
2021/05/13 04:04:18;;;;;;;8.20;5.72;;;;;;;9.32;86.18;99591.77;1694252;84;21063;-79
2021/05/13 04:06:45;;;;;;;11.45;5.50;;;;;;;9.36;86.31;99589.39;1697446;84;21074;-80
2021/05/13 04:09:13;;;;;;;11.45;6.12;;;;;;;9.38;86.34;99594.98;1696216;84;21094;-82
2021/05/13 04:11:40;;;;;;;8.30;5.40;;;;;;;9.39;85.66;99594.08;1673612;84;21110;-84
2021/05/13 04:14:08;;;;;;;10.40;5.67;;;;;;;9.36;85.66;99595.95;1699732;83;21092;-82
2021/05/13 04:16:39;;;;;;;11.50;6.50;;;;;;;9.36;86.01;99596.84;1702739;83;21055;-81
2021/05/13 04:19:06;;;;;;;12.53;6.30;;;;;;;9.42;86.29;99595.25;1697883;83;22141;-83
2021/05/13 04:21:33;;;;;;;11.75;6.58;;;;;;;9.42;86.29;99595.25;1701854;83;21141;-82
2021/05/13 04:24:07;;;;;;;14.33;6.53;;;;;;;9.42;85.45;99596.57;1698722;83;21310;-82
2021/05/13 04:26:41;;;;;;;13.72;7.10;;;;;;;9.37;85.38;99594.59;1671533;84;21127;-81
2021/05/13 04:29:08;;;;;;;10.93;6.70;;;;;;;9.36;85.65;99595.52;1696511;84;21134;-76
2021/05/13 04:31:35;;;;;;;11.12;6.90;;;;;;;9.36;85.74;99604.72;1696486;83;21473;-70
2021/05/13 04:34:05;;;;;;;8.43;6.37;;;;;;;9.35;85.75;99600.83;1694500;83;21160;-71
2021/05/13 04:36:33;;;;;;;9.30;6.62;;;;;;;9.31;86.00;99601.40;1690616;84;21142;-73
2021/05/13 04:39:00;;;;;;;11.85;6.20;;;;;;;9.33;86.06;99598.72;1680711;83;21075;-74
2021/05/13 04:41:30;;;;;;;13.10;6.25;;;;;;;9.37;86.19;99600.31;1675528;83;21740;-74
2021/05/13 04:43:56;;;;;;;7.92;6.30;;;;;;;9.38;85.87;99593.66;1668204;85;21752;-72
2021/05/13 04:46:25;;;;;;;7.83;5.70;;;;;;;9.42;85.90;99591.78;1669317;83;21221;-70
2021/05/13 04:51:27;;;;;;;9.23;6.55;;;;;;;9.50;86.34;99588.39;1690985;83;21641;-75
2021/05/13 04:53:55;;;;;;;8.85;6.35;;;;;;;9.53;86.28;99586.09;1666766;84;21072;-75
2021/05/13 04:56:23;;;;;;;8.75;6.45;;;;;;;9.57;86.19;99572.75;1698638;84;21107;-75
2021/05/13 04:58:50;;;;;;;9.50;6.55;;;;;;;9.61;85.99;99577.41;1677226;84;21179;-77
2021/05/13 05:01:20;;;;;;;8.68;6.62;;;;;;;9.66;85.87;99575.44;1627972;87;21627;-75
2021/05/13 05:03:47;;;;;;;13.32;6.92;;;;;;;9.75;85.55;99587.34;1655578;86;21123;-74
2021/05/13 05:06:15;;;;;;;7.60;6.53;;;;;;;9.80;85.15;99581.42;1648198;86;21124;-77
2021/05/13 05:08:42;;;;;;;8.90;6.62;;;;;;;9.88;85.26;99578.87;1638185;86;21708;-73
2021/05/13 05:11:10;;;;;;;11.65;6.65;;;;;;;10.01;85.16;99585.78;1645803;85;21133;-74
2021/05/13 05:13:39;;;;;;;9.03;6.95;;;;;;;10.15;84.99;99583.87;1627589;86;21792;-72
2021/05/13 05:16:06;;;;;;;8.78;6.80;;;;;;;10.32;84.14;99580.98;1653549;86;21069;-73
2021/05/13 05:18:33;;;;;;;10.63;6.22;;;;;;;10.47;83.79;99584.25;1649970;86;21121;-74
2021/05/13 05:21:00;;;;;;;11.83;6.92;;;;;;;10.73;83.25;99584.83;1646986;86;21921;-73
2021/05/13 05:23:29;;;;;;;10.35;6.80;;;;;;;11.05;82.23;99582.00;1648867;86;21288;-71
2021/05/13 05:25:56;;;;;;;9.70;7.25;;;;;;;11.27;81.22;99585.75;1649105;86;21118;-71
2021/05/13 05:28:25;;;;;;;14.60;7.78;;;;;;;11.40;80.08;99578.96;1648756;86;21071;-71
2021/05/13 05:30:52;;;;;;;9.55;7.22;;;;;;;11.55;78.23;99584.80;1651607;86;21534;-72
2021/05/13 05:33:19;;;;;;;9.40;6.80;;;;;;;11.77;77.01;99579.76;1638822;86;21810;-71
2021/05/13 05:35:45;;;;;;;10.53;6.15;;;;;;;12.05;76.62;99586.30;1649423;86;21191;-71
2021/05/13 05:38:12;;;;;;;17.80;6.60;;;;;;;12.36;75.34;99573.20;1649407;85;21211;-72
2021/05/13 05:40:39;;;;;;;29.25;9.28;;;;;;;12.80;72.95;99575.22;1649613;86;21101;-71
2021/05/13 05:43:06;;;;;;;11.83;7.25;;;;;;;13.35;71.29;99578.39;1648131;86;21092;-71
2021/05/13 05:45:33;;;;;;;14.03;7.53;;;;;;;13.64;67.96;99572.72;1639468;86;21254;-73
2021/05/13 05:48:00;;;;;;;10.95;6.60;;;;;;;13.84;67.61;99572.88;1644763;86;21169;-73
2021/05/13 05:50:29;;;;;;;12.47;7.12;;;;;;;14.06;67.52;99559.22;1645076;86;21160;-72
2021/05/13 05:52:56;;;;;;;10.28;7.00;;;;;;;14.43;65.41;99568.88;1645079;86;21128;-73
2021/05/13 05:56:09;;;;;;;9.60;6.92;;;;;;;14.69;63.64;99555.35;1642156;86;21101;-73
2021/05/13 05:58:37;;;;;;;9.50;6.65;;;;;;;15.01;63.80;99557.75;1627450;86;21125;-72
2021/05/13 06:01:04;;;;;;;9.33;6.72;;;;;;;15.53;59.75;99550.37;1643819;86;21519;-72
2021/05/13 06:03:30;;;;;;;9.50;5.80;;;;;;;15.84;58.05;99552.30;1650689;86;21116;-71
2021/05/13 06:05:58;;;;;;;9.65;5.42;;;;;;;15.93;57.49;99555.17;1650754;86;21084;-71
2021/05/13 06:08:26;;;;;;;8.30;6.33;;;;;;;15.93;56.49;99544.55;1639392;85;21121;-72
2021/05/13 06:10:53;;;;;;;9.25;6.37;;;;;;;16.02;56.68;99549.72;1637851;87;21136;-72
2021/05/13 06:13:20;;;;;;;13.62;6.58;;;;;;;16.02;55.46;99553.70;1645898;86;21235;-72
2021/05/13 06:15:46;;;;;;;9.25;5.75;;;;;;;16.14;55.63;99551.52;1650751;86;21088;-72
2021/05/13 06:18:13;;;;;;;8.25;6.10;;;;;;;16.49;54.16;99554.84;1638783;86;21725;-73
2021/05/13 06:20:40;;;;;;;7.78;5.78;;;;;;;16.73;54.75;99558.06;1637580;87;21145;-72
2021/05/13 06:23:08;;;;;;;10.58;5.58;;;;;;;16.76;53.32;99561.81;1641111;86;21147;-72
2021/05/13 06:25:36;;;;;;;10.85;5.53;;;;;;;16.55;52.34;99559.73;1643564;86;21314;-73
2021/05/13 06:28:04;;;;;;;24.32;7.55;;;;;;;16.15;53.17;99555.05;1648325;85;21109;-73
2021/05/13 06:30:31;;;;;;;13.53;6.70;;;;;;;16.17;54.38;99558.91;1631940;85;21644;-71
2021/05/13 06:32:58;;;;;;;12.07;6.45;;;;;;;16.21;53.76;99557.74;1638304;86;21100;-71
2021/05/13 06:35:25;;;;;;;9.10;6.75;;;;;;;16.23;53.68;99553.17;1630169;86;22344;-72
2021/05/13 06:37:53;;;;;;;11.65;6.70;;;;;;;16.29;53.94;99558.91;1644588;85;21106;-71
2021/05/13 06:40:21;;;;;;;8.30;6.78;;;;;;;16.47;53.91;99556.78;1644387;86;21613;-72
2021/05/13 06:42:48;;;;;;;10.95;6.70;;;;;;;16.73;52.36;99567.36;1643404;86;21102;-70
2021/05/13 06:45:15;;;;;;;10.40;7.50;;;;;;;16.77;52.82;99564.83;1645578;86;21138;-71
2021/05/13 06:47:43;;;;;;;8.48;6.45;;;;;;;16.89;51.95;99567.99;1645573;85;21105;-71
2021/05/13 06:50:12;;;;;;;9.30;6.50;;;;;;;17.22;52.05;99562.50;1632234;85;21142;-69
2021/05/13 06:52:39;;;;;;;9.80;6.15;;;;;;;17.31;51.28;99562.30;1645446;86;21091;-71
2021/05/13 06:55:08;;;;;;;9.20;6.65;;;;;;;17.56;50.17;99563.98;1640024;86;21115;-72
2021/05/13 06:57:35;;;;;;;9.00;6.20;;;;;;;17.81;49.59;99557.20;1642101;86;21318;-72
2021/05/13 07:00:03;;;;;;;12.13;6.17;;;;;;;18.08;47.96;99557.37;1638207;86;21479;-73
2021/05/13 07:02:32;;;;;;;11.25;5.58;;;;;;;18.27;46.88;99559.94;1642534;86;21150;-71
2021/05/13 07:05:00;;;;;;;6.97;5.28;;;;;;;18.32;46.64;99551.12;1637206;86;21106;-71
2021/05/13 07:07:27;;;;;;;7.92;4.78;;;;;;;18.47;46.96;99555.22;1639395;86;21189;-71
2021/05/13 07:09:56;;;;;;;8.70;4.20;;;;;;;18.83;44.48;99550.64;1621793;86;21121;-71
2021/05/13 07:12:22;;;;;;;6.50;3.30;;;;;;;18.83;43.35;99553.30;1621649;86;21209;-72
2021/05/13 07:14:49;;;;;;;8.20;3.00;;;;;;;18.76;42.30;99550.73;1620080;86;21767;-70
2021/05/13 07:17:16;;;;;;;6.72;2.60;;;;;;;18.51;42.20;99536.69;1625176;86;21165;-73
2021/05/13 07:19:43;;;;;;;12.30;2.85;;;;;;;18.34;42.25;99544.70;1626983;86;21085;-72
2021/05/13 07:22:27;;;;;;;4.85;2.08;;;;;;;18.31;43.65;99541.41;1627513;86;21631;-70
2021/05/13 07:24:54;;;;;;;3.37;2.15;;;;;;;18.38;41.57;99541.28;1636072;87;21174;-70
2021/05/13 07:27:21;;;;;;;4.17;2.67;;;;;;;18.35;41.04;99542.88;1635567;87;21157;-70
2021/05/13 07:29:48;;;;;;;8.30;2.30;;;;;;;18.30;41.82;99534.39;1625820;86;21115;-72
2021/05/13 07:32:15;;;;;;;4.35;1.92;;;;;;;18.56;40.23;99531.83;1618991;86;21630;-71
2021/05/13 07:34:42;;;;;;;14.65;2.30;;;;;;;18.73;38.90;99536.33;1626733;88;21116;-71
2021/05/13 07:37:08;;;;;;;9.73;2.85;;;;;;;18.71;40.04;99538.27;1636739;87;21181;-71
2021/05/13 07:39:35;;;;;;;10.10;2.15;;;;;;;18.92;40.14;99528.55;1636327;87;21056;-70
2021/05/13 07:42:02;;;;;;;4.05;2.05;;;;;;;19.02;37.71;99537.48;1643344;87;21268;-70
2021/05/13 07:44:30;;;;;;;5.80;2.15;;;;;;;18.62;38.27;99530.02;1636238;87;21333;-71
2021/05/13 07:46:58;;;;;;;7.42;2.40;;;;;;;18.60;38.77;99525.28;1635343;86;21599;-70
2021/05/13 07:49:26;;;;;;;6.35;2.00;;;;;;;18.61;38.61;99521.67;1648073;85;21126;-71
2021/05/13 07:51:53;;;;;;;10.03;2.70;;;;;;;18.60;39.24;99527.95;1659273;85;21163;-70
2021/05/13 07:54:21;;;;;;;9.35;2.20;;;;;;;18.54;38.45;99528.47;1644400;87;21180;-70
2021/05/13 07:56:49;;;;;;;2.83;1.80;;;;;;;18.49;38.74;99536.45;1644796;86;21159;-71
2021/05/13 07:59:15;;;;;;;21.10;2.50;;;;;;;18.32;39.00;99525.80;1666296;86;21151;-69
2021/05/13 08:01:42;;;;;;;6.37;2.22;;;;;;;18.45;39.61;99528.70;1654286;86;21500;-70
2021/05/13 08:04:09;;;;;;;3.55;2.30;;;;;;;18.83;39.01;99533.30;1660355;86;21702;-71
2021/05/13 08:06:37;;;;;;;6.62;2.37;;;;;;;18.88;37.87;99537.77;1660420;86;21106;-71
2021/05/13 08:09:04;;;;;;;4.80;2.12;;;;;;;18.89;38.10;99526.14;1654901;86;21123;-71
2021/05/13 08:11:32;;;;;;;3.25;2.12;;;;;;;19.03;38.06;99528.52;1660582;86;21227;-71
2021/05/13 08:13:59;;;;;;;3.60;2.02;;;;;;;18.89;38.11;99526.60;1656959;86;21147;-69
2021/05/13 08:16:26;;;;;;;5.75;2.00;;;;;;;18.74;37.84;99523.34;1655589;86;21142;-71
2021/05/13 08:18:53;;;;;;;6.55;1.92;;;;;;;18.20;38.34;99517.80;1657721;86;21119;-71
2021/05/13 08:21:20;;;;;;;5.05;2.22;;;;;;;18.14;38.60;99518.27;1658184;86;22259;-72
2021/05/13 08:23:47;;;;;;;9.98;2.15;;;;;;;18.19;38.36;99520.08;1657557;86;21150;-70
2021/05/13 08:26:14;;;;;;;3.40;2.00;;;;;;;17.84;38.38;99525.48;1656273;86;21119;-71
2021/05/13 08:28:41;;;;;;;7.92;2.10;;;;;;;17.54;39.19;99520.66;1636413;85;21154;-71
2021/05/13 08:31:38;;;;;;;3.95;2.05;;;;;;;17.36;39.26;99537.03;1642395;85;21233;-73
2021/05/13 08:34:05;;;;;;;11.25;2.50;;;;;;;17.19;39.93;99526.81;1647750;85;21608;-71
2021/05/13 08:36:32;;;;;;;4.47;2.47;;;;;;;17.14;41.44;99524.98;1640758;86;21143;-70
2021/05/13 08:39:03;;;;;;;7.35;2.72;;;;;;;17.30;41.65;99525.53;1643720;87;21722;-70
2021/05/13 08:41:33;;;;;;;;;;;;;;;17.47;40.82;99516.77;1637282;86;21862;-70
2021/05/13 08:44:00;;;;;;;6.22;2.50;;;;;;;17.45;40.40;99529.34;1600804;87;20292;-71
2021/05/13 08:46:27;;;;;;;10.05;2.30;;;;;;;17.28;40.44;99531.45;1636905;87;21107;-70
2021/05/13 08:48:54;;;;;;;4.78;2.20;;;;;;;17.40;40.29;99531.02;1647212;85;21202;-70
2021/05/13 08:51:21;;;;;;;10.20;2.50;;;;;;;17.53;39.91;99532.25;1656571;86;21500;-70
2021/05/13 08:53:54;;;;;;;8.10;2.10;;;;;;;17.25;39.61;99550.28;1647919;86;21057;-70
2021/05/13 08:56:24;;;;;;;3.92;1.70;;;;;;;17.10;40.97;99532.81;1646221;87;21710;-71
2021/05/13 08:58:51;;;;;;;3.67;1.70;;;;;;;16.98;39.49;99526.09;1644721;86;21102;-71
2021/05/13 09:01:24;;;;;;;3.40;1.62;;;;;;;17.03;39.23;99553.69;1640038;87;22159;-70
2021/05/13 09:03:55;;;;;;;7.20;2.20;;;;;;;17.15;39.19;99538.64;1641312;86;21143;-69
2021/05/13 09:09:13;;;;;;;4.65;1.70;;;;;;;18.06;37.39;99514.03;1637041;86;21152;-70
2021/05/13 09:11:57;;;;;;;4.60;1.90;;;;;;;18.35;37.06;99516.22;1643389;86;21127;-71
2021/05/13 09:14:32;;;;;;;6.45;1.72;;;;;;;18.53;36.85;99521.42;1635879;86;21071;-73
2021/05/13 09:17:00;;;;;;;7.92;2.30;;;;;;;18.56;36.50;99508.32;1639949;86;21753;-70
2021/05/13 09:19:34;;;;;;;6.60;2.00;;;;;;;18.44;39.21;99515.48;1623599;86;21653;-71
2021/05/13 09:22:05;;;;;;;3.62;1.50;;;;;;;18.69;37.33;99521.53;1635760;87;21107;-70
2021/05/13 09:24:55;;;;;;;2.75;1.40;;;;;;;18.74;36.70;99518.00;1642180;86;21060;-71
2021/05/13 09:27:34;;;;;;;2.95;1.47;;;;;;;18.69;36.22;99535.70;1641157;86;21107;-70
2021/05/13 09:30:16;;;;;;;3.47;1.40;;;;;;;18.10;36.44;99530.13;1647463;86;21170;-70
2021/05/13 09:32:51;;;;;;;10.60;1.55;;;;;;;17.99;36.95;99511.45;1646307;86;21112;-71
2021/05/13 09:35:29;;;;;;;3.60;1.50;;;;;;;18.09;37.00;99517.78;1643265;86;21091;-72
2021/05/13 09:37:58;;;;;;;3.15;1.75;;;;;;;18.11;37.05;99517.19;1643653;87;21128;-70
2021/05/13 09:40:41;;;;;;;3.45;1.32;;;;;;;18.37;36.78;99522.27;1644357;86;21139;-72
2021/05/13 09:43:14;;;;;;;1.40;1.12;;;;;;;18.61;35.21;99521.67;1643882;86;21215;-71
2021/05/13 09:45:50;;;;;;;3.52;1.42;;;;;;;18.49;35.25;99511.96;1644448;86;21300;-70
2021/05/13 09:48:39;;;;;;;4.85;1.45;;;;;;;18.42;35.41;99517.42;1646078;86;21065;-71
2021/05/13 09:51:32;;;;;;;6.92;1.50;;;;;;;18.38;35.86;99518.63;1640225;87;21120;-71
2021/05/13 09:54:15;;;;;;;3.52;1.70;;;;;;;18.20;36.33;99512.46;1602512;88;21135;-72
2021/05/13 09:56:49;;;;;;;6.60;1.90;;;;;;;18.09;36.60;99515.12;1606429;88;21159;-71
2021/05/13 09:59:34;;;;;;;4.35;1.70;;;;;;;18.17;36.76;99495.36;1608590;87;21173;-70
2021/05/13 10:02:04;;;;;;;2.83;1.57;;;;;;;18.37;36.67;99514.28;1581980;89;21144;-71
2021/05/13 10:04:36;;;;;;;3.37;1.55;;;;;;;18.46;35.84;99506.88;1609348;89;21187;-71
2021/05/13 10:07:01;;;;;;;16.35;1.85;;;;;;;18.20;36.53;99502.30;1612255;87;21630;-71
2021/05/13 10:09:31;;;;;;;6.80;2.05;;;;;;;18.14;36.98;99507.61;1587282;88;21768;-71
2021/05/13 10:12:00;;;;;;;5.00;1.60;;;;;;;18.17;37.29;99506.52;1606526;87;21641;-72
2021/05/13 10:14:28;;;;;;;4.92;2.30;;;;;;;18.11;36.78;99495.86;1609869;87;21147;-72
2021/05/13 10:16:57;;;;;;;5.40;1.82;;;;;;;18.09;37.27;99504.46;1609953;88;21144;-72
2021/05/13 10:19:28;;;;;;;4.65;1.90;;;;;;;18.28;37.13;99504.34;1604125;89;21100;-71
2021/05/13 10:21:55;;;;;;;2.05;1.82;;;;;;;18.43;36.63;99513.80;1608700;88;21259;-69
2021/05/13 10:24:22;;;;;;;6.15;2.30;;;;;;;18.47;37.76;99501.90;1584389;88;21147;-70
2021/05/13 10:26:50;;;;;;;3.08;1.80;;;;;;;18.35;37.48;99502.89;1617959;87;21060;-71
2021/05/13 10:29:26;;;;;;;4.37;1.80;;;;;;;17.96;36.54;99510.38;1586291;88;21135;-71
2021/05/13 10:32:16;;;;;;;7.15;2.20;;;;;;;17.52;38.97;99519.92;1644195;86;21096;-71
2021/05/13 10:34:59;;;;;;;8.05;2.00;;;;;;;17.65;38.86;99512.70;1583566;88;21132;-73
2021/05/13 10:37:38;;;;;;;8.53;2.37;;;;;;;17.63;38.57;99505.31;1556012;90;21112;-72
2021/05/13 10:40:27;;;;;;;10.55;2.17;;;;;;;17.61;37.71;99511.23;1584746;89;21617;-71
2021/05/13 10:43:04;;;;;;;3.45;1.60;;;;;;;17.55;38.75;99538.31;1614832;87;21190;-70
2021/05/13 10:45:42;;;;;;;9.08;2.47;;;;;;;17.45;38.26;99518.69;1609747;88;21192;-70
2021/05/13 10:48:39;;;;;;;6.12;2.17;;;;;;;17.39;39.09;99518.66;1617013;88;22253;-72
2021/05/13 10:51:07;;;;;;;2.85;1.90;;;;;;;17.34;38.83;99509.68;1639604;86;21078;-70
2021/05/13 10:53:52;;;;;;;2.40;1.82;;;;;;;17.35;37.89;99506.56;1638844;86;21107;-73
2021/05/13 10:56:35;;;;;;;6.17;2.10;;;;;;;17.31;37.51;99501.94;1639943;86;21174;-70
2021/05/13 10:59:14;;;;;;;5.05;2.40;;;;;;;17.36;38.20;99506.91;1630051;87;21879;-72
2021/05/13 11:01:55;;;;;;;5.20;2.02;;;;;;;17.64;38.22;99503.00;1647925;86;21199;-71
2021/05/13 11:04:29;;;;;;;4.92;2.15;;;;;;;18.05;37.38;99483.02;1643065;86;21253;-71
2021/05/13 11:06:59;;;;;;;16.12;2.72;;;;;;;18.56;37.13;99506.50;1634036;86;21213;-72
2021/05/13 11:09:46;;;;;;;10.53;2.00;;;;;;;18.46;35.39;99520.22;1642341;86;21171;-71
2021/05/13 11:12:28;;;;;;;5.35;1.67;;;;;;;18.34;35.72;99493.20;1642177;86;21655;-72
2021/05/13 11:20:22;;;;;;;4.40;2.17;;;;;;;18.49;35.64;99494.62;1636997;86;21067;-71
2021/05/13 11:22:58;;;;;;;6.15;2.15;;;;;;;18.45;35.73;99486.54;1637188;86;21123;-71
2021/05/13 11:25:44;;;;;;;5.70;1.90;;;;;;;18.45;35.86;99474.55;1630028;86;21654;-72
2021/05/13 11:28:42;;;;;;;10.82;2.50;;;;;;;18.30;36.04;99488.59;1631302;86;21711;-73
2021/05/13 11:31:19;;;;;;;9.33;2.00;;;;;;;18.31;36.84;99488.10;1633878;86;22311;-73
2021/05/13 11:33:50;;;;;;;3.60;1.80;;;;;;;18.25;35.63;99478.78;1632632;86;21118;-72
2021/05/13 11:36:23;;;;;;;;;;;;;;;18.33;35.98;99471.02;1631682;86;21245;-71
2021/05/13 11:39:00;;;;;;;3.92;1.77;;;;;;;18.46;35.69;99476.22;1634327;86;20258;-74
2021/05/13 11:41:27;;;;;;;5.25;1.67;;;;;;;18.53;34.90;99478.75;1634638;86;21178;-71
2021/05/13 11:43:54;;;;;;;1.98;1.77;;;;;;;18.29;34.88;99488.70;1629017;86;21083;-73
2021/05/13 11:46:23;;;;;;;8.98;1.75;;;;;;;18.05;34.87;99473.69;1631469;86;21202;-72
2021/05/13 11:48:51;;;;;;;2.17;1.85;;;;;;;18.02;36.12;99485.44;1626561;86;21115;-73
2021/05/13 11:51:24;;;;;;;8.00;1.95;;;;;;;18.03;34.75;99491.61;1639171;86;21701;-73
2021/05/13 11:53:54;;;;;;;3.77;2.22;;;;;;;17.87;35.80;99488.44;1653331;84;21108;-71
2021/05/13 11:56:21;;;;;;;4.50;1.80;;;;;;;17.91;36.09;99473.92;1659302;84;21138;-71
2021/05/13 11:58:55;;;;;;;9.18;2.52;;;;;;;17.81;35.76;99483.97;1634706;87;21220;-73
2021/05/13 12:01:40;;;;;;;3.55;2.40;;;;;;;17.75;36.20;99472.41;1625890;87;21195;-73
2021/05/13 12:04:13;;;;;;;4.15;2.17;;;;;;;17.72;36.53;99480.64;1632363;87;21113;-72
2021/05/13 12:06:43;;;;;;;10.90;2.17;;;;;;;17.78;36.61;99476.19;1657906;84;22137;-73